Time;durP1;ratioP1;P1;durP2;ratioP2;P2;SDS_P1;SDS_P2;PMS_P1;PMS_P2;Temp;Humidity;BMP_temperature;BMP_pressure;BME280_temperature;BME280_humidity;BME280_pressure;Samples;Min_cycle;Max_cycle;Signal;HPM_P1;HPM_P2
2021/12/14 07:01:35;;;;;;;65.78;21.77;;;10.20;99.90;;;;;;5462769;23;20044;-87
2021/12/14 07:04:15;;;;;;;64.40;21.58;;;10.20;99.90;;;;;;4914794;29;20538;-87
2021/12/14 07:07:11;;;;;;;63.15;19.98;;;10.20;99.90;;;;;;4889728;29;20099;-87
2021/12/14 07:09:41;;;;;;;54.63;20.50;;;10.20;99.90;;;;;;4916176;29;20044;-87
2021/12/14 07:12:22;;;;;;;53.83;19.15;;;10.20;99.90;;;;;;4911882;29;20091;-87
2021/12/14 07:14:53;;;;;;;59.17;20.23;;;10.20;99.90;;;;;;4881652;29;20144;-87
2021/12/14 07:17:26;;;;;;;66.78;21.15;;;10.30;99.90;;;;;;4896740;29;20123;-88
2021/12/14 07:20:24;;;;;;;68.32;21.02;;;10.20;99.90;;;;;;4898390;29;20055;-87
2021/12/14 07:22:55;;;;;;;71.45;22.90;;;10.30;99.90;;;;;;4912772;29;20052;-86
2021/12/14 07:25:39;;;;;;;56.85;21.73;;;10.20;99.90;;;;;;4912016;29;20398;-91
2021/12/14 07:28:12;;;;;;;70.68;20.17;;;10.30;99.90;;;;;;4894768;29;20052;-87
2021/12/14 07:30:46;;;;;;;73.18;21.27;;;10.30;99.90;;;;;;4913725;29;20079;-88
2021/12/14 07:33:20;;;;;;;109.03;22.08;;;10.30;99.90;;;;;;4909744;29;20040;-89
2021/12/14 07:35:56;;;;;;;64.57;19.67;;;10.30;99.90;;;;;;4896360;29;20497;-88
2021/12/14 07:38:45;;;;;;;83.72;19.63;;;10.30;99.90;;;;;;4912483;29;20496;-88
2021/12/14 07:41:28;;;;;;;73.70;19.90;;;10.30;99.90;;;;;;4889190;29;20055;-87
2021/12/14 07:43:55;;;;;;;73.50;19.90;;;10.20;99.90;;;;;;4911978;29;20111;-87
2021/12/14 07:46:38;;;;;;;133.63;22.50;;;10.20;99.90;;;;;;4894735;29;20056;-87
2021/12/14 07:49:24;;;;;;;111.57;21.73;;;10.30;99.90;;;;;;4909487;29;20059;-86
2021/12/14 07:52:02;;;;;;;143.48;22.75;;;10.30;99.90;;;;;;4910350;29;20473;-87
2021/12/14 07:54:34;;;;;;;109.60;21.93;;;10.20;99.90;;;;;;4905913;29;20052;-87
2021/12/14 07:57:15;;;;;;;146.95;23.08;;;10.30;99.90;;;;;;4908287;29;20096;-88
2021/12/14 07:59:54;;;;;;;162.90;23.00;;;10.20;99.90;;;;;;4880205;29;20064;-87
2021/12/14 08:02:41;;;;;;;;;;;10.30;99.90;;;;;;4909608;29;20111;-88
2021/12/14 08:05:23;;;;;;;300.88;26.27;;;10.20;99.90;;;;;;4896044;29;20364;-88
2021/12/14 08:08:18;;;;;;;153.32;22.88;;;10.20;99.90;;;;;;4914837;29;20111;-88
2021/12/14 08:14:12;;;;;;;214.13;24.73;;;10.20;99.90;;;;;;4911923;29;20060;-88
2021/12/14 08:16:56;;;;;;;139.05;19.02;;;10.20;99.90;;;;;;4911552;29;20051;-88
2021/12/14 08:19:40;;;;;;;146.73;20.13;;;10.20;99.90;;;;;;4892721;29;20539;-88
2021/12/14 08:22:25;;;;;;;94.15;19.77;;;10.20;99.90;;;;;;4909849;29;20433;-88
2021/12/14 08:24:53;;;;;;;121.32;21.10;;;10.20;99.90;;;;;;4910157;29;20044;-88
2021/12/14 08:27:22;;;;;;;206.32;21.33;;;10.20;99.90;;;;;;4911567;29;20044;-88
2021/12/14 08:29:57;;;;;;;99.78;19.35;;;10.20;99.90;;;;;;4893652;29;20127;-88
2021/12/14 08:32:29;;;;;;;176.07;20.75;;;10.20;99.90;;;;;;4911589;29;20056;-87
2021/12/14 08:35:01;;;;;;;165.10;23.30;;;10.20;99.90;;;;;;4911425;29;20112;-87
2021/12/14 08:37:28;;;;;;;95.75;19.90;;;10.20;99.90;;;;;;4892824;29;20075;-88
2021/12/14 08:40:02;;;;;;;249.00;25.88;;;10.20;99.90;;;;;;4895524;29;20139;-87
2021/12/14 08:42:48;;;;;;;148.25;20.95;;;10.20;99.90;;;;;;4910676;29;20449;-88
2021/12/14 08:45:26;;;;;;;165.10;21.98;;;10.20;99.90;;;;;;4894980;29;20517;-88
2021/12/14 08:48:04;;;;;;;218.80;24.40;;;10.30;99.90;;;;;;4885160;29;20048;-88
2021/12/14 08:50:56;;;;;;;162.68;23.50;;;10.30;99.90;;;;;;4914554;29;20048;-88
2021/12/14 08:53:28;;;;;;;172.98;22.58;;;10.30;99.90;;;;;;4897671;29;20124;-89
2021/12/14 08:55:58;;;;;;;132.90;25.50;;;10.30;99.90;;;;;;4915047;29;20128;-88
2021/12/14 08:58:26;;;;;;;105.85;22.35;;;10.30;99.90;;;;;;4896254;29;20085;-88
2021/12/14 09:00:58;;;;;;;136.95;21.90;;;10.30;99.90;;;;;;4904442;28;20064;-87
2021/12/14 09:03:33;;;;;;;110.47;20.40;;;10.30;99.90;;;;;;4932065;28;20051;-88
2021/12/14 09:06:10;;;;;;;116.53;22.85;;;10.30;99.90;;;;;;4935181;28;20052;-88
2021/12/14 09:08:39;;;;;;;111.78;22.13;;;10.40;99.90;;;;;;4939735;28;20048;-88
2021/12/14 09:11:09;;;;;;;73.75;21.10;;;10.40;99.90;;;;;;4933483;28;20055;-89
2021/12/14 09:13:37;;;;;;;157.63;23.50;;;10.40;99.90;;;;;;4931487;29;20134;-88
2021/12/14 09:16:13;;;;;;;115.27;21.73;;;10.40;99.90;;;;;;4933540;28;20067;-86
2021/12/14 09:18:49;;;;;;;176.02;22.35;;;10.50;99.90;;;;;;4933993;28;20044;-88
2021/12/14 09:21:30;;;;;;;138.55;23.52;;;10.40;99.90;;;;;;4930541;29;20075;-88
2021/12/14 09:24:05;;;;;;;134.88;23.27;;;10.40;99.90;;;;;;4933350;28;20052;-88
2021/12/14 09:26:35;;;;;;;92.53;21.60;;;10.50;99.90;;;;;;4933334;28;20087;-87
2021/12/14 09:29:07;;;;;;;88.55;19.90;;;10.50;99.90;;;;;;4934272;28;20056;-87
2021/12/14 09:31:37;;;;;;;111.25;21.73;;;10.50;99.90;;;;;;4931843;29;20122;-88
2021/12/14 09:34:10;;;;;;;83.50;19.05;;;10.50;99.90;;;;;;4933902;28;20052;-87
2021/12/14 09:36:38;;;;;;;126.50;22.25;;;10.50;99.90;;;;;;4932695;29;20110;-88
2021/12/14 09:39:10;;;;;;;152.82;22.50;;;10.50;99.90;;;;;;4932588;28;20103;-88
2021/12/14 09:41:40;;;;;;;112.60;21.70;;;10.50;99.90;;;;;;4932770;28;20076;-88
2021/12/14 09:44:10;;;;;;;103.35;20.92;;;10.50;99.90;;;;;;4933869;28;20074;-89
2021/12/14 09:47:09;;;;;;;112.55;22.88;;;10.50;99.90;;;;;;4932889;29;20050;-86
2021/12/14 09:50:09;;;;;;;91.88;22.30;;;10.50;99.90;;;;;;4933098;28;20058;-87
2021/12/14 09:52:41;;;;;;;96.03;22.75;;;10.50;99.90;;;;;;4930598;29;20044;-88
2021/12/14 09:55:16;;;;;;;79.57;21.70;;;10.50;99.90;;;;;;4929805;29;20512;-88
2021/12/14 09:57:56;;;;;;;69.05;21.63;;;10.50;99.90;;;;;;4932083;29;20048;-88
2021/12/14 10:00:30;;;;;;;55.88;21.08;;;10.50;99.90;;;;;;4930372;28;20095;-88
2021/12/14 10:03:00;;;;;;;69.32;22.05;;;10.60;99.90;;;;;;4897265;29;20100;-88
2021/12/14 10:05:45;;;;;;;67.13;22.17;;;10.60;99.90;;;;;;4897552;29;20497;-88
2021/12/14 10:08:20;;;;;;;46.10;19.92;;;10.60;99.90;;;;;;4915160;29;20082;-88
2021/12/14 10:11:05;;;;;;;42.20;19.50;;;10.60;99.90;;;;;;4893563;29;20468;-88
2021/12/14 10:13:35;;;;;;;49.85;20.63;;;10.70;99.90;;;;;;4896545;29;20040;-87
2021/12/14 10:16:05;;;;;;;56.25;20.15;;;10.70;99.90;;;;;;4895631;29;20476;-88
2021/12/14 10:18:40;;;;;;;47.20;20.55;;;10.70;99.90;;;;;;4895106;29;20044;-88
2021/12/14 10:21:20;;;;;;;41.00;19.15;;;10.70;99.90;;;;;;4896463;29;20052;-88
2021/12/14 10:23:49;;;;;;;43.03;19.48;;;10.80;99.90;;;;;;4897606;29;20116;-88
2021/12/14 10:26:16;;;;;;;;;;;10.80;99.90;;;;;;4914833;29;20075;-88
2021/12/14 10:28:46;;;;;;;42.63;20.58;;;10.80;99.90;;;;;;4913704;29;19923;-88
2021/12/14 10:31:43;;;;;;;44.90;21.13;;;10.90;99.90;;;;;;4911286;29;20052;-88
2021/12/14 10:34:17;;;;;;;37.72;19.80;;;10.90;99.90;;;;;;4911761;29;20056;-87
2021/12/14 10:36:48;;;;;;;44.53;20.52;;;10.90;99.90;;;;;;4911619;29;20047;-88
2021/12/14 10:39:35;;;;;;;44.90;20.40;;;10.90;99.90;;;;;;4916342;29;20147;-88
2021/12/14 10:45:02;;;;;;;56.03;21.48;;;11.00;99.90;;;;;;4898346;29;20100;-88
2021/12/14 10:47:30;;;;;;;43.38;20.80;;;11.00;99.90;;;;;;4912706;29;20056;-87
2021/12/14 10:50:03;;;;;;;46.42;19.92;;;11.10;99.90;;;;;;4913396;29;20445;-88
2021/12/14 10:52:31;;;;;;;44.60;20.17;;;11.10;99.90;;;;;;4896742;29;20117;-89
2021/12/14 10:55:05;;;;;;;43.97;21.00;;;11.10;99.90;;;;;;4894762;29;20048;-87
2021/12/14 10:57:35;;;;;;;42.58;20.60;;;11.10;99.90;;;;;;4895892;29;20060;-88
2021/12/14 11:00:09;;;;;;;47.97;20.58;;;11.10;99.90;;;;;;4894682;29;20092;-88
2021/12/14 11:02:41;;;;;;;49.20;22.45;;;11.10;99.90;;;;;;4912014;29;20568;-86
2021/12/14 11:05:16;;;;;;;51.75;22.23;;;11.10;99.90;;;;;;4913623;29;20044;-89
2021/12/14 11:07:46;;;;;;;44.33;19.75;;;11.20;99.90;;;;;;4908150;29;20056;-88
2021/12/14 11:10:23;;;;;;;41.55;20.35;;;11.20;99.90;;;;;;4894625;29;20143;-88
2021/12/14 11:13:06;;;;;;;41.05;19.80;;;11.10;99.90;;;;;;4888148;29;20060;-88
2021/12/14 11:15:41;;;;;;;41.95;18.85;;;11.20;99.90;;;;;;4892202;29;20505;-88
2021/12/14 11:18:16;;;;;;;38.13;17.38;;;11.10;99.90;;;;;;4892352;29;20040;-88
2021/12/14 11:21:03;;;;;;;32.53;16.83;;;11.20;99.90;;;;;;4910478;29;20052;-89
2021/12/14 11:23:38;;;;;;;35.30;18.27;;;11.20;99.90;;;;;;4890186;29;20425;-89
2021/12/14 11:26:06;;;;;;;32.60;17.27;;;11.20;99.90;;;;;;4893109;29;20052;-87
2021/12/14 11:28:38;;;;;;;26.05;15.68;;;11.20;99.90;;;;;;4908328;29;20044;-87
2021/12/14 11:31:08;;;;;;;28.50;16.30;;;11.20;99.90;;;;;;4892122;29;20437;-89
2021/12/14 11:33:48;;;;;;;33.70;17.35;;;11.20;99.90;;;;;;4908610;29;20052;-83
2021/12/14 11:36:20;;;;;;;31.13;16.50;;;11.20;99.90;;;;;;4906371;29;20414;-84
2021/12/14 11:39:05;;;;;;;33.88;16.67;;;11.30;99.90;;;;;;4891041;29;20052;-85
2021/12/14 11:41:48;;;;;;;32.92;16.70;;;11.30;99.90;;;;;;4889783;29;20052;-84
2021/12/14 11:44:14;;;;;;;32.92;16.92;;;11.30;99.90;;;;;;4903929;29;20067;-83
2021/12/14 11:47:05;;;;;;;32.20;17.73;;;11.30;99.90;;;;;;4890958;29;20420;-83
2021/12/14 11:50:00;;;;;;;29.33;16.85;;;11.30;99.90;;;;;;4832615;29;20136;-84
2021/12/14 11:52:39;;;;;;;23.30;14.73;;;11.40;99.90;;;;;;4847709;29;20045;-83
2021/12/14 11:55:21;;;;;;;28.05;16.90;;;11.40;99.90;;;;;;4832342;29;20061;-84
2021/12/14 11:57:50;;;;;;;32.05;17.63;;;11.30;99.90;;;;;;4848052;29;20053;-83
2021/12/14 12:00:21;;;;;;;33.83;16.55;;;11.30;99.90;;;;;;4832486;29;20053;-83
2021/12/14 12:02:48;;;;;;;31.98;17.83;;;11.30;99.90;;;;;;4851059;29;20053;-83
2021/12/14 12:05:21;;;;;;;33.58;17.98;;;11.30;99.90;;;;;;4850922;29;20057;-83
2021/12/14 12:10:47;;;;;;;36.28;18.45;;;11.30;99.90;;;;;;4865624;29;20056;-82
2021/12/14 12:13:15;;;;;;;32.30;17.92;;;11.30;99.90;;;;;;4867080;29;20476;-82
2021/12/14 12:15:45;;;;;;;29.27;17.60;;;11.20;99.90;;;;;;4866489;29;20177;-82
2021/12/14 12:18:12;;;;;;;29.70;17.85;;;11.20;99.90;;;;;;4871338;29;20109;-82
2021/12/14 12:20:46;;;;;;;33.47;18.50;;;11.20;99.90;;;;;;4875123;29;20502;-82
2021/12/14 12:23:21;;;;;;;28.52;16.83;;;11.30;99.90;;;;;;4872012;29;20140;-82
2021/12/14 12:25:48;;;;;;;27.88;16.40;;;11.30;99.90;;;;;;4880654;29;20106;-83
2021/12/14 12:28:31;;;;;;;31.25;16.65;;;11.30;99.90;;;;;;4927912;29;20103;-82
2021/12/14 12:31:28;;;;;;;29.02;16.33;;;11.40;99.90;;;;;;4932053;29;20086;-82
2021/12/14 12:33:57;;;;;;;32.22;16.80;;;11.40;99.90;;;;;;4915477;29;20055;-81
2021/12/14 12:36:37;;;;;;;31.08;16.90;;;11.40;99.90;;;;;;4930915;29;20492;-82
2021/12/14 12:39:07;;;;;;;34.78;17.85;;;11.40;99.90;;;;;;4931516;29;20044;-82
2021/12/14 12:41:40;;;;;;;30.23;18.02;;;11.50;99.90;;;;;;4932391;29;20586;-82
2021/12/14 12:44:16;;;;;;;33.03;16.92;;;11.50;99.90;;;;;;4934259;29;20060;-82
2021/12/14 12:46:58;;;;;;;27.30;16.30;;;11.50;99.90;;;;;;4910778;29;20393;-82
2021/12/14 12:49:33;;;;;;;25.65;16.27;;;11.50;99.90;;;;;;4932442;29;20059;-82
2021/12/14 12:52:14;;;;;;;25.60;16.15;;;11.60;99.90;;;;;;4931357;29;20059;-82
2021/12/14 12:55:02;;;;;;;33.05;16.70;;;11.60;99.90;;;;;;4931345;29;20433;-82
2021/12/14 12:57:37;;;;;;;32.83;17.90;;;11.60;99.90;;;;;;4930472;29;20079;-82
2021/12/14 13:00:24;;;;;;;28.98;17.58;;;11.60;99.90;;;;;;4931750;29;20112;-82
2021/12/14 13:02:51;;;;;;;28.08;15.88;;;11.60;99.90;;;;;;4897818;29;20063;-82
2021/12/14 13:05:39;;;;;;;28.30;16.10;;;11.60;99.90;;;;;;4914902;29;20080;-82
2021/12/14 13:08:47;;;;;;;30.25;16.42;;;11.70;99.90;;;;;;4918313;28;20488;-82
2021/12/14 13:11:24;;;;;;;41.65;21.13;;;11.70;99.90;;;;;;4903882;29;20052;-82
2021/12/14 13:13:51;;;;;;;39.08;20.88;;;11.60;99.90;;;;;;4914567;29;20052;-81
2021/12/14 13:16:28;;;;;;;42.80;22.00;;;11.60;99.90;;;;;;4912010;29;20055;-82
2021/12/14 13:18:55;;;;;;;31.38;18.55;;;11.60;99.90;;;;;;4912280;29;20052;-82
2021/12/14 13:21:25;;;;;;;38.10;19.92;;;11.60;99.90;;;;;;4911325;29;20111;-82
2021/12/14 13:24:04;;;;;;;33.65;19.67;;;11.70;99.90;;;;;;4913139;29;20393;-81
2021/12/14 13:26:33;;;;;;;37.20;19.83;;;11.60;99.90;;;;;;4913714;29;20044;-82
2021/12/14 13:29:12;;;;;;;35.80;20.77;;;11.60;99.90;;;;;;4913632;29;20111;-82
2021/12/14 13:32:06;;;;;;;39.20;19.95;;;11.60;99.90;;;;;;4910461;29;20087;-82
2021/12/14 13:34:50;;;;;;;33.63;18.58;;;11.60;99.90;;;;;;4911966;29;20092;-82
2021/12/14 13:37:20;;;;;;;;;;;11.50;99.90;;;;;;4911251;29;20103;-82
2021/12/14 13:39:47;;;;;;;32.50;17.65;;;11.40;99.90;;;;;;4911670;29;19974;-82
2021/12/14 13:42:40;;;;;;;28.52;17.58;;;11.40;99.90;;;;;;4911276;29;20095;-82
2021/12/14 13:45:12;;;;;;;29.75;17.05;;;11.40;99.90;;;;;;4899330;29;20131;-82
2021/12/14 13:47:40;;;;;;;30.90;16.92;;;11.40;99.90;;;;;;4895877;29;20073;-82
2021/12/14 13:50:12;;;;;;;35.40;18.88;;;11.50;99.90;;;;;;4913723;29;20399;-82
2021/12/14 13:52:39;;;;;;;31.73;18.23;;;11.50;99.90;;;;;;4911203;29;20044;-81
2021/12/14 13:55:16;;;;;;;29.17;17.15;;;11.40;99.90;;;;;;4893668;29;20052;-81
2021/12/14 13:58:16;;;;;;;28.95;17.45;;;11.50;99.90;;;;;;4910917;29;20104;-82
2021/12/14 14:00:54;;;;;;;36.42;18.58;;;11.50;99.90;;;;;;4911645;29;20398;-82
2021/12/14 14:03:26;;;;;;;44.22;23.98;;;11.50;99.90;;;;;;4911776;29;20496;-82
2021/12/14 14:05:54;;;;;;;41.53;24.08;;;11.50;99.90;;;;;;4911162;29;20100;-82
2021/12/14 14:08:55;;;;;;;37.13;19.80;;;11.50;99.90;;;;;;4901618;29;20071;-82
2021/12/14 14:11:23;;;;;;;32.65;18.40;;;11.60;99.90;;;;;;4905253;29;20048;-81
2021/12/14 14:13:53;;;;;;;31.52;18.58;;;11.60;99.90;;;;;;4911931;29;20473;-82
2021/12/14 14:16:21;;;;;;;42.47;19.98;;;11.60;99.90;;;;;;4910325;29;20108;-81
2021/12/14 14:18:52;;;;;;;37.50;19.85;;;11.60;99.90;;;;;;4911511;29;20066;-82
2021/12/14 14:21:31;;;;;;;42.63;20.30;;;11.60;99.90;;;;;;4909843;29;20119;-82
2021/12/14 14:23:58;;;;;;;35.10;19.02;;;11.60;99.90;;;;;;4911252;29;20112;-82
2021/12/14 14:26:31;;;;;;;42.90;20.92;;;11.60;99.90;;;;;;4912732;29;20416;-82
2021/12/14 14:29:09;;;;;;;40.85;20.25;;;11.60;99.90;;;;;;4912185;29;20508;-82
2021/12/14 14:31:45;;;;;;;40.35;20.15;;;11.60;99.90;;;;;;4910712;29;20103;-82
2021/12/14 14:34:20;;;;;;;37.25;19.70;;;11.60;99.90;;;;;;4909814;29;20078;-81
2021/12/14 14:36:55;;;;;;;38.35;19.98;;;11.60;99.90;;;;;;4910376;29;20513;-82
2021/12/14 14:39:23;;;;;;;42.28;21.00;;;11.60;99.90;;;;;;4910068;29;20048;-81
2021/12/14 14:41:51;;;;;;;46.93;21.27;;;11.60;99.90;;;;;;4911298;29;20084;-82
2021/12/14 14:44:29;;;;;;;46.85;20.95;;;11.60;99.90;;;;;;4912825;29;20285;-82
2021/12/14 14:47:02;;;;;;;45.53;21.98;;;11.70;99.90;;;;;;4912069;29;20539;-81
2021/12/14 14:49:32;;;;;;;46.58;20.75;;;11.70;99.90;;;;;;4909367;29;20044;-82
2021/12/14 14:52:02;;;;;;;45.70;21.75;;;11.70;99.90;;;;;;4910300;29;20451;-82
2021/12/14 14:54:35;;;;;;;41.92;21.10;;;11.60;99.90;;;;;;4909809;29;20047;-82
2021/12/14 14:57:11;;;;;;;46.05;23.05;;;11.60;99.90;;;;;;4910219;29;20044;-81
2021/12/14 14:59:37;;;;;;;42.70;21.58;;;11.70;99.90;;;;;;4911482;29;20099;-82
2021/12/14 15:02:06;;;;;;;43.15;21.77;;;11.60;99.90;;;;;;4932103;28;20044;-81
2021/12/14 15:04:56;;;;;;;;;;;11.60;99.90;;;;;;4928437;28;20044;-82
2021/12/14 15:07:46;;;;;;;46.08;21.98;;;11.60;99.90;;;;;;4926534;28;19922;-82
2021/12/14 15:10:15;;;;;;;43.80;20.65;;;11.50;99.90;;;;;;4925510;28;20103;-82
2021/12/14 15:12:43;;;;;;;46.95;20.08;;;11.50;99.90;;;;;;4931819;28;20099;-81
2021/12/14 15:15:13;;;;;;;41.88;20.83;;;11.40;99.90;;;;;;4926247;28;20056;-82
2021/12/14 15:17:50;;;;;;;44.47;22.00;;;11.40;99.90;;;;;;4929792;28;20433;-81
2021/12/14 15:20:33;;;;;;;45.75;21.95;;;11.40;99.90;;;;;;4927840;28;20055;-82
2021/12/14 15:23:06;;;;;;;51.15;22.45;;;11.40;99.90;;;;;;4931069;28;20048;-82
2021/12/14 15:25:34;;;;;;;51.08;24.17;;;11.40;99.90;;;;;;4929109;28;20040;-81
2021/12/14 15:28:04;;;;;;;48.65;23.55;;;11.40;99.90;;;;;;4929378;28;20107;-81
2021/12/14 15:30:46;;;;;;;47.05;22.23;;;11.40;99.90;;;;;;4929053;28;20146;-81
2021/12/14 15:33:15;;;;;;;46.28;21.42;;;11.40;99.90;;;;;;4929952;28;20516;-81
2021/12/14 15:36:05;;;;;;;49.47;22.33;;;11.40;99.90;;;;;;4930668;28;20136;-82
2021/12/14 15:38:42;;;;;;;61.35;28.02;;;11.40;99.90;;;;;;4928568;28;20047;-82
2021/12/14 15:41:11;;;;;;;53.33;25.40;;;11.40;99.90;;;;;;4931274;28;20059;-81
2021/12/14 15:43:59;;;;;;;56.58;26.10;;;11.40;99.90;;;;;;4929361;28;20546;-80
2021/12/14 15:46:35;;;;;;;47.78;23.55;;;11.40;99.90;;;;;;4922661;28;20103;-81
2021/12/14 15:49:02;;;;;;;45.58;20.75;;;11.40;99.90;;;;;;4927171;28;20066;-81
2021/12/14 15:51:31;;;;;;;44.03;22.73;;;11.40;99.90;;;;;;4927333;28;20432;-81
2021/12/14 15:53:58;;;;;;;49.92;21.55;;;11.40;99.90;;;;;;4927441;28;20587;-81
2021/12/14 15:56:33;;;;;;;42.15;20.95;;;11.40;99.90;;;;;;4927567;28;20432;-82
2021/12/14 15:59:20;;;;;;;44.83;23.63;;;11.40;99.90;;;;;;4928061;28;20067;-82
2021/12/14 16:02:12;;;;;;;57.28;31.13;;;11.40;99.90;;;;;;4912549;28;20062;-82
2021/12/14 16:04:54;;;;;;;49.03;27.10;;;11.40;99.90;;;;;;4909265;29;20052;-82
2021/12/14 16:07:25;;;;;;;50.50;24.98;;;11.40;99.90;;;;;;4908699;29;20103;-81
2021/12/14 16:10:05;;;;;;;47.38;23.85;;;11.40;99.90;;;;;;4909645;29;20044;-80
2021/12/14 16:15:10;;;;;;;42.83;23.15;;;11.40;99.90;;;;;;4909032;29;20084;-81
2021/12/14 16:18:01;;;;;;;47.60;22.45;;;11.40;99.90;;;;;;4908404;29;20481;-80
2021/12/14 16:20:44;;;;;;;43.15;20.40;;;11.40;99.90;;;;;;4908528;29;20048;-81
2021/12/14 16:23:19;;;;;;;45.30;21.75;;;11.40;99.90;;;;;;4908447;29;20060;-81
2021/12/14 16:25:55;;;;;;;49.13;23.55;;;11.40;99.90;;;;;;4909079;29;20099;-81
2021/12/14 16:28:25;;;;;;;48.15;21.20;;;11.40;99.90;;;;;;4908170;29;20838;-81
2021/12/14 16:31:04;;;;;;;47.38;21.75;;;11.40;99.90;;;;;;4906180;29;20079;-81
2021/12/14 16:33:53;;;;;;;46.38;22.10;;;11.40;99.90;;;;;;4907575;29;20039;-81
2021/12/14 16:36:29;;;;;;;39.53;20.73;;;11.40;99.90;;;;;;4908193;29;20107;-82
2021/12/14 16:39:06;;;;;;;43.15;20.80;;;11.40;99.90;;;;;;4902477;29;20055;-81
2021/12/14 16:41:44;;;;;;;40.60;21.20;;;11.40;99.90;;;;;;4907441;29;20052;-83
2021/12/14 16:44:58;;;;;;;75.77;32.73;;;11.40;99.90;;;;;;4908236;29;20076;-80
2021/12/14 16:47:33;;;;;;;65.38;29.65;;;11.40;99.90;;;;;;4903508;29;20450;-82
2021/12/14 16:50:14;;;;;;;44.08;22.15;;;11.40;99.90;;;;;;4892308;29;20111;-81
2021/12/14 16:52:41;;;;;;;77.28;42.40;;;11.30;99.90;;;;;;4891736;29;20103;-81
2021/12/14 16:55:18;;;;;;;41.10;21.08;;;11.30;99.90;;;;;;4891099;29;20052;-81
2021/12/14 16:57:46;;;;;;;40.10;20.33;;;11.30;99.90;;;;;;4907299;29;20060;-81
2021/12/14 17:00:27;;;;;;;39.33;20.58;;;11.30;99.90;;;;;;4889440;29;20099;-81
2021/12/14 17:03:00;;;;;;;43.28;22.17;;;11.30;99.90;;;;;;4908573;29;20474;-81
2021/12/14 17:05:35;;;;;;;43.78;22.98;;;11.30;99.90;;;;;;4907939;29;20513;-81
2021/12/14 17:08:08;;;;;;;47.72;22.95;;;11.30;99.90;;;;;;4912647;29;20189;-81
2021/12/14 17:10:39;;;;;;;49.78;24.60;;;11.30;99.90;;;;;;4910863;29;20063;-81
2021/12/14 17:13:16;;;;;;;48.30;22.77;;;11.30;99.90;;;;;;4910748;29;20072;-80
2021/12/14 17:15:48;;;;;;;38.42;20.48;;;11.30;99.90;;;;;;4911314;29;20051;-84
2021/12/14 17:18:27;;;;;;;44.22;21.90;;;11.30;99.90;;;;;;4909935;29;20075;-80
2021/12/14 17:20:56;;;;;;;50.75;22.98;;;11.30;99.90;;;;;;4908941;29;20044;-80
2021/12/14 17:23:27;;;;;;;44.40;21.60;;;11.20;99.90;;;;;;4910964;29;20075;-80
2021/12/14 17:25:58;;;;;;;49.60;23.15;;;11.20;99.90;;;;;;4911174;29;20056;-81
2021/12/14 17:28:53;;;;;;;52.47;22.98;;;11.20;99.90;;;;;;4893221;29;20687;-81
2021/12/14 17:31:34;;;;;;;42.25;21.92;;;11.20;99.90;;;;;;4898109;29;20805;-82
2021/12/14 17:34:10;;;;;;;46.72;24.08;;;11.20;99.90;;;;;;4893973;29;20051;-80
2021/12/14 17:36:38;;;;;;;51.83;26.80;;;11.20;99.90;;;;;;4910748;29;20107;-81
2021/12/14 17:39:30;;;;;;;51.72;25.95;;;11.20;99.90;;;;;;4910749;29;20048;-81
2021/12/14 17:42:04;;;;;;;47.47;23.23;;;11.20;99.90;;;;;;4894085;29;20052;-81
2021/12/14 17:44:33;;;;;;;51.92;22.88;;;11.20;99.90;;;;;;4910221;29;20103;-80
2021/12/14 17:47:12;;;;;;;49.17;22.10;;;11.20;99.90;;;;;;4901547;29;20056;-83
2021/12/14 17:49:50;;;;;;;43.50;22.38;;;11.20;99.90;;;;;;4897538;29;20040;-81
2021/12/14 17:52:24;;;;;;;45.95;21.80;;;11.20;99.90;;;;;;4898946;29;20060;-83
2021/12/14 17:55:01;;;;;;;46.38;22.77;;;11.20;99.90;;;;;;4891097;29;20059;-81
2021/12/14 17:57:41;;;;;;;46.72;23.63;;;11.20;99.90;;;;;;4908084;29;20063;-82
2021/12/14 18:00:16;;;;;;;51.00;24.25;;;11.20;99.90;;;;;;4909372;29;20415;-82
2021/12/14 18:02:47;;;;;;;50.20;23.15;;;11.20;99.90;;;;;;4909244;29;20059;-83
2021/12/14 18:05:34;;;;;;;62.25;30.85;;;11.20;99.90;;;;;;4907925;29;20044;-81
2021/12/14 18:08:09;;;;;;;47.45;23.63;;;11.20;99.90;;;;;;4888425;29;20096;-82
2021/12/14 18:10:44;;;;;;;56.20;26.77;;;11.10;99.90;;;;;;4907907;29;20056;-81
2021/12/14 18:13:16;;;;;;;49.85;24.38;;;11.10;99.90;;;;;;4908473;29;20104;-82
2021/12/14 18:15:48;;;;;;;87.57;44.78;;;11.10;99.90;;;;;;4908882;29;20052;-82
2021/12/14 18:21:10;;;;;;;60.53;28.17;;;11.10;99.90;;;;;;4908299;29;20052;-81
2021/12/14 18:23:38;;;;;;;66.53;30.70;;;11.10;99.90;;;;;;4909318;29;20052;-82
2021/12/14 18:26:16;;;;;;;107.07;53.75;;;11.10;99.90;;;;;;4892588;29;20052;-82
2021/12/14 18:28:53;;;;;;;121.00;61.80;;;11.10;99.90;;;;;;4911034;29;20059;-83
2021/12/14 18:31:22;;;;;;;129.52;61.28;;;11.10;99.90;;;;;;4912171;29;20056;-82
2021/12/14 18:33:55;;;;;;;138.68;69.00;;;11.00;99.90;;;;;;4909027;29;20108;-81
2021/12/14 18:36:56;;;;;;;97.10;49.42;;;11.00;99.90;;;;;;4909058;29;20052;-82
2021/12/14 18:39:30;;;;;;;105.50;49.83;;;11.00;99.90;;;;;;4906531;29;20092;-80
2021/12/14 18:42:16;;;;;;;86.57;40.58;;;11.00;99.90;;;;;;4908199;29;20056;-80
2021/12/14 18:44:56;;;;;;;71.68;33.88;;;11.00;99.90;;;;;;4908458;29;20048;-81
2021/12/14 18:50:07;;;;;;;62.85;28.52;;;11.00;99.90;;;;;;4907431;29;20059;-80
2021/12/14 18:52:35;;;;;;;67.88;30.67;;;11.00;99.90;;;;;;4907212;29;20055;-81
2021/12/14 18:55:13;;;;;;;65.80;29.20;;;11.00;99.90;;;;;;4908694;29;20524;-80
2021/12/14 18:57:41;;;;;;;73.60;29.87;;;11.00;99.90;;;;;;4906576;29;20055;-80
2021/12/14 19:00:14;;;;;;;76.75;33.08;;;11.00;99.90;;;;;;4907059;29;20048;-78
2021/12/14 19:02:42;;;;;;;79.70;36.78;;;11.00;99.90;;;;;;4908534;29;20044;-81
2021/12/14 19:05:25;;;;;;;74.80;33.70;;;11.00;99.90;;;;;;4908559;29;20055;-82
2021/12/14 19:08:07;;;;;;;67.50;32.03;;;11.00;99.90;;;;;;4908155;29;20509;-81
2021/12/14 19:11:03;;;;;;;75.60;31.90;;;11.00;99.90;;;;;;4906685;29;20048;-83
2021/12/14 19:13:33;;;;;;;72.53;32.38;;;11.00;99.90;;;;;;4906799;29;20052;-80
2021/12/14 19:16:08;;;;;;;75.75;34.08;;;11.00;99.90;;;;;;4908565;29;20048;-81
2021/12/14 19:18:39;;;;;;;71.75;33.15;;;11.00;99.90;;;;;;4907092;29;20108;-81
2021/12/14 19:21:21;;;;;;;62.97;29.55;;;11.00;99.90;;;;;;4907316;29;20074;-84
2021/12/14 19:24:06;;;;;;;74.50;36.55;;;11.00;99.90;;;;;;4908620;29;20056;-80
2021/12/14 19:26:38;;;;;;;71.43;32.40;;;11.00;99.90;;;;;;4908755;29;20103;-79
2021/12/14 19:29:12;;;;;;;74.43;36.65;;;11.10;99.90;;;;;;4909110;29;20075;-80
2021/12/14 19:31:46;;;;;;;64.97;29.23;;;11.00;99.90;;;;;;4908984;29;20051;-80
2021/12/14 19:34:16;;;;;;;64.78;30.25;;;11.00;99.90;;;;;;4908889;29;20134;-80
2021/12/14 19:36:49;;;;;;;69.60;33.42;;;11.00;99.90;;;;;;4908985;29;20047;-79
2021/12/14 19:39:21;;;;;;;72.45;31.20;;;11.00;99.90;;;;;;4888842;29;20079;-80
2021/12/14 19:41:48;;;;;;;75.05;33.78;;;11.00;99.90;;;;;;4907789;29;20044;-80
2021/12/14 19:44:29;;;;;;;85.25;39.80;;;11.00;99.90;;;;;;4913225;29;20496;-80
2021/12/14 19:47:07;;;;;;;87.15;39.60;;;11.00;99.90;;;;;;4906372;29;20646;-82
2021/12/14 19:49:42;;;;;;;80.82;40.13;;;11.00;99.90;;;;;;4889511;29;20059;-82
2021/12/14 19:52:13;;;;;;;80.00;33.10;;;11.00;99.90;;;;;;4888279;29;20052;-83
2021/12/14 19:54:46;;;;;;;75.65;32.75;;;11.00;99.90;;;;;;4892608;29;20051;-82
2021/12/14 19:57:22;;;;;;;101.70;57.72;;;11.00;99.90;;;;;;4908198;29;20048;-83
2021/12/14 19:59:59;;;;;;;70.85;34.28;;;11.00;99.90;;;;;;4907755;29;20131;-83
2021/12/14 20:02:32;;;;;;;86.32;38.22;;;11.00;99.90;;;;;;4908047;29;20729;-83
2021/12/14 20:05:03;;;;;;;82.25;45.08;;;11.00;99.90;;;;;;4907228;29;20052;-82
2021/12/14 20:07:33;;;;;;;86.00;47.25;;;11.00;99.90;;;;;;4907379;29;20052;-82
2021/12/14 20:10:04;;;;;;;76.90;36.92;;;11.00;99.90;;;;;;4886563;29;20056;-82
2021/12/14 20:12:35;;;;;;;80.18;42.05;;;11.00;99.90;;;;;;4907431;29;20063;-83
2021/12/14 20:15:18;;;;;;;95.57;53.88;;;11.00;99.90;;;;;;4908970;29;20056;-83
2021/12/14 20:17:51;;;;;;;72.25;38.30;;;10.90;99.90;;;;;;4904760;29;20052;-81
2021/12/14 20:20:25;;;;;;;86.28;44.33;;;10.90;99.90;;;;;;4906571;29;20044;-83
2021/12/14 20:23:02;;;;;;;76.60;41.78;;;10.90;99.90;;;;;;4906361;29;20055;-84
2021/12/14 20:25:35;;;;;;;78.15;39.17;;;10.90;99.90;;;;;;4907714;29;20048;-82
2021/12/14 20:28:18;;;;;;;90.25;42.50;;;10.90;99.90;;;;;;4908039;29;20119;-82